Time;durP1;ratioP1;P1;durP2;ratioP2;P2;SDS_P1;SDS_P2;PMS_P1;PMS_P2;Temp;Humidity;BMP_temperature;BMP_pressure;BME280_temperature;BME280_humidity;BME280_pressure;Samples;Min_cycle;Max_cycle;Signal;HPM_P1;HPM_P2
2023/03/07 07:07:16;;;;;;;;;;;;;;;2.85;67.40;96647.06;6208083;22;19970;-62
2023/03/07 07:09:41;;;;;;;;;;;;;;;2.91;67.04;96644.09;6214001;23;19948;-64
2023/03/07 07:12:06;;;;;;;;;;;;;;;2.99;67.27;96638.41;6214826;23;19916;-63
2023/03/07 07:14:33;;;;;;;;;;;;;;;3.02;66.75;96644.22;6189445;23;20019;-61
2023/03/07 07:16:58;;;;;;;;;;;;;;;3.08;67.12;96643.03;6214689;23;19908;-62
2023/03/07 07:19:25;;;;;;;;;;;;;;;3.13;66.83;96653.91;6214746;23;19935;-63
2023/03/07 07:21:50;;;;;;;;;;;;;;;3.17;66.24;96650.22;6212932;23;19908;-62
2023/03/07 07:24:15;;;;;;;;;;;;;;;3.23;66.78;96643.81;6214900;23;19914;-62
2023/03/07 07:26:41;;;;;;;;;;;;;;;3.28;65.61;96649.53;6214020;23;19922;-61
2023/03/07 07:29:06;;;;;;;;;;;;;;;3.32;65.71;96653.59;6214530;23;19916;-62
2023/03/07 07:31:31;;;;;;;;;;;;;;;3.43;64.94;96651.13;6215103;23;19908;-62
2023/03/07 07:33:56;;;;;;;;;;;;;;;3.49;65.19;96652.50;6213917;23;19915;-64
2023/03/07 07:36:22;;;;;;;;;;;;;;;3.50;65.16;96656.75;6188910;23;19908;-66
2023/03/07 07:38:47;;;;;;;;;;;;;;;3.56;64.42;96651.19;6214647;23;19916;-63
2023/03/07 07:41:13;;;;;;;;;;;;;;;3.54;65.31;96645.25;6214516;23;19908;-64
2023/03/07 07:43:38;;;;;;;;;;;;;;;3.57;64.52;96638.09;6215355;23;19940;-66
2023/03/07 07:46:03;;;;;;;;;;;;;;;3.61;64.82;96648.28;6215591;23;19958;-65
2023/03/07 07:48:29;;;;;;;;;;;;;;;3.62;64.81;96649.97;6214900;23;19907;-65
2023/03/07 07:50:54;;;;;;;;;;;;;;;3.60;64.84;96646.63;6188749;23;19907;-64
2023/03/07 07:53:19;;;;;;;;;;;;;;;3.67;64.82;96647.88;6215247;23;19916;-65
2023/03/07 07:55:44;;;;;;;;;;;;;;;3.72;64.41;96651.84;6215648;23;19908;-65
2023/03/07 07:58:10;;;;;;;;;;;;;;;3.79;64.02;96644.50;6189612;23;19915;-64
2023/03/07 08:00:35;;;;;;;;;;;;;;;3.81;64.44;96648.63;6187977;23;19922;-65
2023/03/07 08:03:00;;;;;;;;;;;;;;;3.87;63.96;96644.81;6213931;23;19923;-64
2023/03/07 08:05:25;;;;;;;;;;;;;;;3.94;63.07;96651.25;6215284;23;19908;-64
2023/03/07 08:07:51;;;;;;;;;;;;;;;3.99;62.93;96638.81;6215096;23;19918;-64
2023/03/07 08:10:16;;;;;;;;;;;;;;;4.01;63.15;96642.13;6214853;23;19944;-63
2023/03/07 08:12:42;;;;;;;;;;;;;;;4.01;63.49;96636.94;6187697;23;20347;-63
2023/03/07 08:15:07;;;;;;;;;;;;;;;4.10;63.09;96632.91;6188719;23;19919;-65
2023/03/07 08:17:33;;;;;;;;;;;;;;;4.16;62.25;96634.22;6215195;23;19908;-65
2023/03/07 08:20:00;;;;;;;;;;;;;;;4.08;63.20;96641.72;6215239;23;20335;-65
2023/03/07 08:22:25;;;;;;;;;;;;;;;4.11;62.72;96638.91;6188027;23;19915;-65
2023/03/07 08:24:51;;;;;;;;;;;;;;;4.14;62.62;96636.13;6187690;23;19908;-64
2023/03/07 08:27:16;;;;;;;;;;;;;;;4.14;62.82;96631.75;6215076;23;20269;-65
2023/03/07 08:29:41;;;;;;;;;;;;;;;4.19;62.59;96628.84;6215152;23;19939;-66
2023/03/07 08:32:07;;;;;;;;;;;;;;;4.18;61.96;96632.38;6163565;23;19916;-64
2023/03/07 08:34:32;;;;;;;;;;;;;;;4.15;62.48;96628.22;6213165;23;19915;-62
2023/03/07 08:36:57;;;;;;;;;;;;;;;4.25;62.56;96620.63;6214875;23;19908;-64
2023/03/07 08:39:23;;;;;;;;;;;;;;;4.24;62.13;96624.19;6214925;23;20360;-64
2023/03/07 08:41:48;;;;;;;;;;;;;;;4.32;62.05;96627.06;6214816;23;20378;-61
2023/03/07 08:44:13;;;;;;;;;;;;;;;4.43;61.82;96624.56;6214446;23;20343;-60
2023/03/07 08:46:38;;;;;;;;;;;;;;;4.48;61.82;96638.06;6214440;23;20355;-61
2023/03/07 08:49:04;;;;;;;;;;;;;;;4.52;61.37;96623.94;6214712;23;20251;-60
2023/03/07 08:51:29;;;;;;;;;;;;;;;4.57;60.78;96620.19;6214494;23;20286;-61
2023/03/07 08:53:54;;;;;;;;;;;;;;;4.58;60.24;96619.25;6214937;23;20230;-61
2023/03/07 08:56:19;;;;;;;;;;;;;;;4.61;60.59;96622.47;6187628;23;20383;-61
2023/03/07 19:59:52;;;;;;;;;;;;;;;4.59;53.46;96496.28;6205473;22;19973;-56
2023/03/07 20:02:18;;;;;;;;;;;;;;;4.59;53.23;96485.88;6212680;23;19986;-59
2023/03/07 20:04:43;;;;;;;;;;;;;;;4.47;54.13;96485.84;6213859;23;19919;-59
2023/03/07 20:07:09;;;;;;;;;;;;;;;4.45;53.80;96484.28;6212145;23;19908;-59
2023/03/07 20:09:34;;;;;;;;;;;;;;;4.48;53.72;96492.66;6213233;23;19943;-59
2023/03/07 20:11:59;;;;;;;;;;;;;;;4.45;54.08;96492.88;6212432;23;19927;-58
2023/03/07 20:14:24;;;;;;;;;;;;;;;4.39;54.35;96484.72;6213907;23;20327;-58
2023/03/07 20:16:50;;;;;;;;;;;;;;;4.42;54.25;96487.91;6214272;23;20232;-59
2023/03/07 20:19:15;;;;;;;;;;;;;;;4.49;53.56;96489.13;6214670;23;20181;-59
2023/03/07 20:21:42;;;;;;;;;;;;;;;4.40;53.74;96489.78;6214868;23;20263;-59
2023/03/07 20:24:07;;;;;;;;;;;;;;;4.37;54.01;96481.38;6213356;23;19943;-59
2023/03/07 20:26:33;;;;;;;;;;;;;;;4.34;54.14;96492.00;6211487;23;19908;-58
2023/03/07 20:28:58;;;;;;;;;;;;;;;4.37;54.21;96491.75;6212818;23;20394;-59
2023/03/07 20:31:24;;;;;;;;;;;;;;;4.35;53.92;96489.28;6213447;23;19947;-59
2023/03/07 20:33:49;;;;;;;;;;;;;;;4.33;54.80;96493.75;6214294;23;19908;-58
2023/03/07 20:36:21;;;;;;;;;;;;;;;4.38;53.78;96490.84;6214381;23;19915;-58
2023/03/07 20:38:48;;;;;;;;;;;;;;;4.41;53.97;96485.44;6213598;23;19908;-58
2023/03/07 20:41:13;;;;;;;;;;;;;;;4.37;53.70;96487.41;6187414;23;20335;-60
2023/03/07 20:43:38;;;;;;;;;;;;;;;4.38;53.90;96489.06;6214382;23;19908;-60
2023/03/07 20:46:08;;;;;;;;;;;;;;;4.35;54.32;96494.47;6186114;23;19979;-60
2023/03/07 20:48:33;;;;;;;;;;;;;;;4.35;54.27;96494.47;6188231;23;19908;-61
2023/03/07 20:51:04;;;;;;;;;;;;;;;4.40;53.84;96502.75;6214049;23;19912;-62
2023/03/07 20:53:29;;;;;;;;;;;;;;;4.39;54.13;96492.50;6186668;23;19915;-58
2023/03/07 20:55:58;;;;;;;;;;;;;;;4.41;53.67;96488.84;6213850;23;19908;-60
2023/03/07 20:58:28;;;;;;;;;;;;;;;4.41;53.80;96494.06;6214008;23;19919;-59
2023/03/07 21:00:53;;;;;;;;;;;;;;;4.37;53.88;96496.94;6214420;23;20387;-60
2023/03/07 21:03:18;;;;;;;;;;;;;;;4.41;53.34;96495.81;6212647;23;19939;-60
2023/03/07 21:05:44;;;;;;;;;;;;;;;4.45;53.21;96490.28;6214463;23;19908;-60
2023/03/07 21:08:09;;;;;;;;;;;;;;;4.50;53.08;96497.75;6214033;23;19915;-59
2023/03/07 21:10:34;;;;;;;;;;;;;;;4.52;52.95;96491.50;6214088;23;19912;-60
2023/03/07 21:12:59;;;;;;;;;;;;;;;4.52;52.97;96491.50;6213750;23;20285;-60
2023/03/07 21:15:24;;;;;;;;;;;;;;;4.51;52.51;96492.47;6214049;23;19962;-59
2023/03/07 21:17:50;;;;;;;;;;;;;;;4.49;53.09;96502.09;6213798;23;19984;-60
2023/03/07 21:20:15;;;;;;;;;;;;;;;4.53;52.74;96498.34;6214068;23;19974;-59
2023/03/07 21:22:40;;;;;;;;;;;;;;;4.53;52.41;96505.31;6214067;23;19912;-58
2023/03/07 21:25:06;;;;;;;;;;;;;;;4.55;52.45;96500.84;6213024;23;19963;-58
2023/03/07 21:27:31;;;;;;;;;;;;;;;4.51;51.86;96510.63;6214076;23;19973;-58
2023/03/07 21:29:56;;;;;;;;;;;;;;;4.48;52.12;96510.84;6213628;23;20367;-57
2023/03/07 21:32:21;;;;;;;;;;;;;;;4.53;51.92;96513.09;6213194;23;20339;-57
2023/03/07 21:34:48;;;;;;;;;;;;;;;4.53;51.60;96508.75;6212459;23;20106;-58
2023/03/07 21:37:14;;;;;;;;;;;;;;;4.50;52.03;96519.34;6213361;23;19969;-60
2023/03/07 21:39:39;;;;;;;;;;;;;;;4.45;52.01;96521.44;6213909;23;19908;-59
2023/03/07 21:42:04;;;;;;;;;;;;;;;4.49;51.81;96517.69;6214413;23;19914;-58
2023/03/07 21:44:29;;;;;;;;;;;;;;;4.48;52.00;96516.03;6213412;23;19920;-58
2023/03/07 21:46:55;;;;;;;;;;;;;;;4.46;52.52;96517.91;6213871;23;20239;-57
2023/03/07 21:49:20;;;;;;;;;;;;;;;4.53;53.84;96529.50;6214206;23;20229;-58
2023/03/07 21:51:45;;;;;;;;;;;;;;;4.61;54.72;96515.16;6214071;23;20250;-59
2023/03/07 21:54:10;;;;;;;;;;;;;;;4.73;58.05;96519.47;6213535;23;19916;-59
2023/03/07 21:56:36;;;;;;;;;;;;;;;4.81;53.41;96506.75;6212879;23;19935;-58
